Terminal Aerodrome Forecast
Issued by NWS Chicago, IL

Home | Current Version | Previous Version | Text Only | Print | Product List | Glossary On
Versions: 1 2 3 4 5 6 7 8 9 10 11 12 13 14 15 16 17 18 19 20 21 22 23 24 25 26 27 28 29
738
FTUS43 KLOT 311734
TAFRFD
TAF
KRFD 311734Z 3118/0118 12011KT 6SM TSRA SCT050CB BKN100
      TEMPO 3118/3122 24012G25KT 3SM TSRA BKN050CB
     FM312200 15010KT P6SM VCTS SCT050CB BKN080
      TEMPO 3122/0102 4SM TSRA BKN040CB
     FM010200 14006KT P6SM VCSH SCT050 BKN060
     FM011000 16007KT P6SM VCSH BKN050 PROB30 0110/0112 3SM TSRA
      SCT030 OVC050CB=

USA.gov is the U.S. government's official web portal to all federal, state and local government web resources and services.